Time;durP1;ratioP1;P1;durP2;ratioP2;P2;SDS_P1;SDS_P2;PMS_P1;PMS_P2;Temp;Humidity;BMP_temperature;BMP_pressure;BME280_temperature;BME280_humidity;BME280_pressure;Samples;Min_cycle;Max_cycle;Signal;HPM_P1;HPM_P2
2024/03/28 00:02:20;;;;;;;;;;;;;;;5.26;88.70;96726.05;105884;1254;66280;-41
2024/03/28 00:04:47;;;;;;;;;;;;;;;5.23;88.79;96715.10;105573;1254;72967;-41
2024/03/28 00:07:14;;;;;;;;;;;;;;;5.21;88.74;96709.48;105759;1257;61231;-41
2024/03/28 00:09:41;;;;;;;;;;;;;;;5.19;88.86;96706.82;105584;1254;61315;-42
2024/03/28 00:12:08;;;;;;;;;;;;;;;5.18;89.04;96702.27;105886;1253;74379;-42
2024/03/28 00:14:35;;;;;;;;;;;;;;;5.16;89.04;96705.84;105836;1257;66163;-41
2024/03/28 00:17:04;;;;;;;;;;;;;;;5.14;89.18;96707.25;105840;1254;72576;-40
2024/03/28 00:19:31;;;;;;;;;;;;;;;5.14;89.09;96706.56;105540;1257;61193;-38
2024/03/28 00:22:02;;;;;;;;;;;;;;;5.15;89.17;96700.13;105599;1257;61167;-40
2024/03/28 00:24:29;;;;;;;;;;;;;;;5.14;89.22;96708.21;105535;1257;74538;-43
2024/03/28 00:26:56;;;;;;;;;;;;;;;5.14;89.26;96703.97;105619;1257;65180;-43
2024/03/28 00:29:24;;;;;;;;;;;;;;;5.14;89.16;96707.52;105734;1254;72507;-41
2024/03/28 00:31:51;;;;;;;;;;;;;;;5.13;89.19;96710.52;105644;1257;61256;-43
2024/03/28 00:34:18;;;;;;;;;;;;;;;5.12;89.24;96709.73;105780;1255;61889;-44
2024/03/28 00:36:45;;;;;;;;;;;;;;;5.10;89.23;96702.27;105970;1257;74949;-43
2024/03/28 00:39:12;;;;;;;;;;;;;;;5.08;89.27;96706.48;105864;1257;65983;-43
2024/03/28 00:41:39;;;;;;;;;;;;;;;5.07;89.29;96705.12;105819;1254;72577;-40
2024/03/28 00:44:06;;;;;;;;;;;;;;;5.06;89.33;96703.77;105748;1258;61218;-41
2024/03/28 00:46:34;;;;;;;;;;;;;;;5.05;89.46;96696.12;105648;1254;61307;-43
2024/03/28 00:49:01;;;;;;;;;;;;;;;5.04;89.42;96693.95;105617;1257;74262;-41
2024/03/28 00:51:28;;;;;;;;;;;;;;;5.04;89.54;96692.94;105873;1257;65916;-40
2024/03/28 00:53:55;;;;;;;;;;;;;;;5.04;89.52;96688.77;105604;1254;72446;-42
2024/03/28 00:56:22;;;;;;;;;;;;;;;5.02;89.60;96686.55;105659;1258;61362;-41
2024/03/28 00:58:49;;;;;;;;;;;;;;;5.02;89.76;96683.95;105609;1254;61282;-41
2024/03/28 01:01:16;;;;;;;;;;;;;;;5.02;89.65;96677.37;105680;1257;74318;-43
2024/03/28 01:03:44;;;;;;;;;;;;;;;5.02;89.89;96674.13;105683;1257;65351;-41
2024/03/28 01:06:11;;;;;;;;;;;;;;;5.01;89.82;96673.52;105583;1254;72593;-41
2024/03/28 01:08:38;;;;;;;;;;;;;;;4.98;89.90;96677.21;105566;1257;61238;-41
2024/03/28 01:11:05;;;;;;;;;;;;;;;4.97;90.04;96668.03;105673;1254;61210;-41
2024/03/28 01:13:33;;;;;;;;;;;;;;;4.98;90.09;96667.29;105560;1258;75593;-41
2024/03/28 01:16:00;;;;;;;;;;;;;;;5.00;90.12;96666.15;105695;1257;66030;-41
2024/03/28 01:18:27;;;;;;;;;;;;;;;5.01;90.05;96671.61;105650;1258;72551;-42
2024/03/28 01:20:54;;;;;;;;;;;;;;;5.00;90.15;96670.61;105571;1258;61292;-41
2024/03/28 01:23:21;;;;;;;;;;;;;;;5.00;90.33;96669.23;105589;1254;61331;-41
2024/03/28 01:25:48;;;;;;;;;;;;;;;5.01;90.37;96670.23;105617;1258;74364;-43
2024/03/28 01:28:16;;;;;;;;;;;;;;;5.00;90.19;96664.19;105527;1257;66626;-42
2024/03/28 01:30:43;;;;;;;;;;;;;;;5.00;90.51;96661.48;105518;1254;72505;-45
2024/03/28 01:33:10;;;;;;;;;;;;;;;5.01;90.61;96663.59;105590;1258;61257;-44
2024/03/28 01:35:37;;;;;;;;;;;;;;;5.01;90.68;96666.89;105730;1253;61253;-41
2024/03/28 01:38:04;;;;;;;;;;;;;;;5.00;90.73;96669.23;105606;1257;75494;-43
2024/03/28 01:40:31;;;;;;;;;;;;;;;4.98;90.81;96668.35;105601;1257;66858;-42
2024/03/28 01:43:07;;;;;;;;;;;;;;;4.97;90.96;96665.61;105682;1254;72408;-41
2024/03/28 01:45:34;;;;;;;;;;;;;;;4.96;91.05;96665.20;105510;1254;61326;-42
2024/03/28 01:48:01;;;;;;;;;;;;;;;4.96;91.01;96662.45;105525;1254;61329;-40
2024/03/28 01:50:29;;;;;;;;;;;;;;;4.96;91.12;96658.50;105624;1254;73391;-41
2024/03/28 01:52:56;;;;;;;;;;;;;;;4.95;91.14;96657.83;105812;1257;66120;-42
2024/03/28 01:55:23;;;;;;;;;;;;;;;4.93;91.25;96652.98;105635;1254;72284;-42
2024/03/28 01:57:50;;;;;;;;;;;;;;;4.91;91.30;96652.58;105568;1257;61214;-41
2024/03/28 02:00:17;;;;;;;;;;;;;;;4.90;91.45;96647.88;105944;1253;61317;-42
2024/03/28 02:02:45;;;;;;;;;;;;;;;4.89;91.52;96650.16;105589;1257;74296;-41
2024/03/28 02:05:12;;;;;;;;;;;;;;;4.88;91.66;96652.73;105564;1255;67254;-41
2024/03/28 02:07:39;;;;;;;;;;;;;;;4.87;91.86;96653.39;105635;1254;72685;-41
2024/03/28 02:10:07;;;;;;;;;;;;;;;4.87;92.08;96652.10;106176;1253;61298;-42
2024/03/28 02:12:35;;;;;;;;;;;;;;;4.87;92.10;96644.36;105579;1257;61231;-43
2024/03/28 02:15:02;;;;;;;;;;;;;;;4.88;92.22;96635.69;105664;1257;74545;-42
2024/03/28 02:17:30;;;;;;;;;;;;;;;4.89;92.34;96634.84;105759;1257;66144;-41
2024/03/28 02:19:57;;;;;;;;;;;;;;;4.90;92.25;96635.08;105721;1257;72285;-40
2024/03/28 02:22:24;;;;;;;;;;;;;;;4.89;92.34;96633.45;105683;1257;61227;-41
2024/03/28 02:24:51;;;;;;;;;;;;;;;4.90;92.37;96636.66;105726;1256;61360;-40
2024/03/28 02:27:18;;;;;;;;;;;;;;;4.90;92.49;96634.60;105926;1257;74385;-41
2024/03/28 02:29:45;;;;;;;;;;;;;;;4.90;92.63;96636.30;105704;1254;65232;-41
2024/03/28 02:32:13;;;;;;;;;;;;;;;4.90;92.72;96640.91;105892;1254;72266;-41
2024/03/28 02:34:40;;;;;;;;;;;;;;;4.90;92.82;96639.64;105618;1257;61334;-40
2024/03/28 02:37:07;;;;;;;;;;;;;;;4.90;92.85;96635.39;105559;1254;61290;-40
2024/03/28 02:39:34;;;;;;;;;;;;;;;4.91;93.01;96629.45;105723;1256;74323;-40
2024/03/28 02:42:01;;;;;;;;;;;;;;;4.91;93.03;96628.98;105625;1256;65682;-42
2024/03/28 02:44:28;;;;;;;;;;;;;;;4.89;93.22;96623.31;105730;1254;72844;-40
2024/03/28 02:46:55;;;;;;;;;;;;;;;4.87;93.41;96618.37;105613;1256;61220;-41
2024/03/28 02:49:22;;;;;;;;;;;;;;;4.86;93.50;96615.88;105579;1254;61294;-41
2024/03/28 02:51:49;;;;;;;;;;;;;;;4.85;93.70;96618.61;105764;1253;74447;-40
2024/03/28 02:54:16;;;;;;;;;;;;;;;4.84;93.86;96617.02;105535;1256;63882;-41
2024/03/28 02:56:43;;;;;;;;;;;;;;;4.84;93.97;96615.95;105762;1254;72885;-43
2024/03/28 02:59:10;;;;;;;;;;;;;;;4.84;94.03;96617.08;105723;1257;61221;-46
2024/03/28 03:01:37;;;;;;;;;;;;;;;4.85;94.12;96617.49;105665;1253;61358;-42
2024/03/28 03:04:04;;;;;;;;;;;;;;;4.84;94.24;96615.05;105825;1254;74286;-42
2024/03/28 03:06:32;;;;;;;;;;;;;;;4.84;94.42;96611.34;105664;1254;65978;-45
2024/03/28 03:08:59;;;;;;;;;;;;;;;4.84;94.71;96610.07;105727;1253;72415;-44
2024/03/28 03:11:26;;;;;;;;;;;;;;;4.84;94.84;96609.70;105754;1256;61251;-43
2024/03/28 03:13:53;;;;;;;;;;;;;;;4.84;94.97;96613.95;105733;1254;61251;-44
2024/03/28 03:16:20;;;;;;;;;;;;;;;4.85;95.13;96618.59;105712;1257;74280;-44
2024/03/28 03:18:49;;;;;;;;;;;;;;;4.86;95.28;96617.25;105901;1257;65942;-43
2024/03/28 03:21:16;;;;;;;;;;;;;;;4.86;95.44;96614.77;105754;1254;72368;-42
2024/03/28 03:23:49;;;;;;;;;;;;;;;4.86;95.45;96609.88;105725;1256;61180;-42
2024/03/28 03:26:30;;;;;;;;;;;;;;;4.87;95.51;96611.25;105859;1253;61238;-43
2024/03/28 03:34:35;;;;;;;;;;;;;;;4.87;95.89;96595.55;105842;1254;72551;-41
2024/03/28 03:37:21;;;;;;;;;;;;;;;4.88;96.11;96594.00;105608;1256;61169;-41
2024/03/28 03:39:55;;;;;;;;;;;;;;;4.89;96.19;96594.61;105685;1254;61280;-48
2024/03/28 03:42:22;;;;;;;;;;;;;;;4.90;96.37;96596.77;105661;1256;74406;-44
2024/03/28 03:44:49;;;;;;;;;;;;;;;4.91;96.42;96588.59;105609;1256;66301;-42
2024/03/28 03:47:16;;;;;;;;;;;;;;;4.93;96.49;96589.78;105686;1254;72328;-43
2024/03/28 03:49:44;;;;;;;;;;;;;;;4.93;96.63;96583.63;105901;1257;61352;-41
2024/03/28 03:52:11;;;;;;;;;;;;;;;4.92;96.66;96581.52;105768;1254;61314;-38
2024/03/28 03:54:39;;;;;;;;;;;;;;;4.90;96.94;96583.35;105781;1252;74599;-43
2024/03/28 03:57:06;;;;;;;;;;;;;;;4.87;97.07;96585.02;105667;1256;65962;-40
2024/03/28 03:59:34;;;;;;;;;;;;;;;4.85;97.39;96586.75;105642;1255;72284;-40
2024/03/28 04:02:01;;;;;;;;;;;;;;;4.85;97.67;96587.63;105877;1253;61228;-41
2024/03/28 04:04:28;;;;;;;;;;;;;;;4.83;97.65;96580.52;105805;1254;61288;-40
2024/03/28 04:06:56;;;;;;;;;;;;;;;4.82;98.08;96578.36;105597;1253;74324;-37
2024/03/28 04:09:23;;;;;;;;;;;;;;;4.79;98.42;96577.82;105650;1256;65849;-39
2024/03/28 04:11:50;;;;;;;;;;;;;;;4.78;98.53;96572.87;105565;1254;72284;-39
2024/03/28 04:14:17;;;;;;;;;;;;;;;4.76;98.81;96564.59;105621;1257;61132;-39
2024/03/28 04:16:45;;;;;;;;;;;;;;;4.75;99.04;96562.17;105823;1254;61263;-39
2024/03/28 04:19:12;;;;;;;;;;;;;;;4.74;99.26;96555.51;105647;1253;74580;-41
2024/03/28 04:21:40;;;;;;;;;;;;;;;4.72;99.69;96551.52;105702;1254;66372;-39
2024/03/28 04:24:09;;;;;;;;;;;;;;;4.71;99.91;96550.63;105609;1254;72661;-40
2024/03/28 04:26:37;;;;;;;;;;;;;;;4.70;100.00;96553.23;105616;1254;62031;-41
2024/03/28 04:29:06;;;;;;;;;;;;;;;4.71;100.00;96551.01;105633;1254;61252;-40
2024/03/28 04:31:34;;;;;;;;;;;;;;;4.71;100.00;96548.89;105600;1253;74534;-39
2024/03/28 04:34:01;;;;;;;;;;;;;;;4.72;100.00;96551.72;105580;1259;66701;-43
2024/03/28 04:36:28;;;;;;;;;;;;;;;4.73;100.00;96555.43;105598;1259;72813;-42
2024/03/28 04:38:56;;;;;;;;;;;;;;;4.73;100.00;96555.15;105604;1254;61257;-42
2024/03/28 04:41:23;;;;;;;;;;;;;;;4.75;100.00;96555.71;105549;1260;61283;-41
2024/03/28 04:43:51;;;;;;;;;;;;;;;4.77;100.00;96555.46;105574;1259;75509;-41
2024/03/28 04:46:19;;;;;;;;;;;;;;;4.79;100.00;96553.52;105771;1254;64968;-40
2024/03/28 04:48:49;;;;;;;;;;;;;;;4.80;100.00;96551.70;105715;1254;71500;-41
2024/03/28 04:51:16;;;;;;;;;;;;;;;4.81;100.00;96545.16;105706;1254;62132;-42
2024/03/28 04:53:43;;;;;;;;;;;;;;;4.84;100.00;96538.92;105627;1253;62047;-42
2024/03/28 04:56:11;;;;;;;;;;;;;;;4.86;100.00;96537.20;105563;1254;76396;-42
2024/03/28 04:58:38;;;;;;;;;;;;;;;4.88;100.00;96533.07;105675;1254;68838;-41
2024/03/28 05:01:06;;;;;;;;;;;;;;;4.91;100.00;96527.71;105685;1257;72967;-43
2024/03/28 05:03:33;;;;;;;;;;;;;;;4.94;100.00;96521.05;105750;1257;62101;-44
2024/03/28 05:06:00;;;;;;;;;;;;;;;4.97;100.00;96515.41;105803;1254;62520;-44
2024/03/28 05:08:27;;;;;;;;;;;;;;;5.00;100.00;96506.61;105767;1257;75680;-42
2024/03/28 05:10:54;;;;;;;;;;;;;;;5.04;100.00;96508.19;105654;1254;66264;-42
2024/03/28 05:13:21;;;;;;;;;;;;;;;5.08;100.00;96509.14;105597;1254;72793;-42
2024/03/28 05:15:48;;;;;;;;;;;;;;;5.10;100.00;96504.01;105754;1253;62037;-41
2024/03/28 05:18:15;;;;;;;;;;;;;;;5.14;100.00;96490.63;105802;1253;62052;-41
2024/03/28 05:20:42;;;;;;;;;;;;;;;5.17;100.00;96484.24;105739;1253;74670;-40
2024/03/28 05:23:09;;;;;;;;;;;;;;;5.21;100.00;96471.13;105721;1253;65351;-40
2024/03/28 05:25:36;;;;;;;;;;;;;;;5.24;100.00;96471.91;105763;1253;71334;-41
2024/03/28 05:28:04;;;;;;;;;;;;;;;5.27;100.00;96473.52;105909;1256;62031;-41
2024/03/28 05:30:31;;;;;;;;;;;;;;;5.29;100.00;96465.94;105672;1256;61977;-40
2024/03/28 05:33:00;;;;;;;;;;;;;;;5.31;100.00;96476.23;105791;1256;74394;-41
2024/03/28 05:35:27;;;;;;;;;;;;;;;5.34;100.00;96476.84;105765;1254;65555;-41
2024/03/28 05:37:55;;;;;;;;;;;;;;;5.35;100.00;96474.36;105800;1254;72563;-41
2024/03/28 05:40:22;;;;;;;;;;;;;;;5.38;100.00;96472.77;105599;1254;62080;-40
2024/03/28 05:42:49;;;;;;;;;;;;;;;5.42;100.00;96470.15;105595;1253;62047;-41
2024/03/28 05:45:16;;;;;;;;;;;;;;;5.47;100.00;96463.48;105593;1254;75134;-39
2024/03/28 05:47:43;;;;;;;;;;;;;;;5.51;100.00;96462.60;105742;1253;65276;-40
2024/03/28 05:50:11;;;;;;;;;;;;;;;5.59;100.00;96469.06;105670;1256;72636;-41
2024/03/28 05:52:38;;;;;;;;;;;;;;;5.65;100.00;96457.29;105650;1254;62014;-38
2024/03/28 05:55:05;;;;;;;;;;;;;;;5.75;100.00;96459.21;105683;1254;62155;-37
2024/03/28 05:57:32;;;;;;;;;;;;;;;5.87;100.00;96455.88;105569;1256;75404;-36
2024/03/28 05:59:59;;;;;;;;;;;;;;;5.99;100.00;96449.09;105764;1253;66068;-36
2024/03/28 06:02:26;;;;;;;;;;;;;;;6.10;100.00;96442.86;105699;1254;72268;-37
2024/03/28 06:04:53;;;;;;;;;;;;;;;6.22;100.00;96441.84;105598;1257;62066;-37
2024/03/28 06:07:20;;;;;;;;;;;;;;;6.30;100.00;96442.84;105609;1256;62028;-36
2024/03/28 06:09:48;;;;;;;;;;;;;;;6.38;99.86;96433.09;105615;1254;75141;-36
2024/03/28 06:12:15;;;;;;;;;;;;;;;6.45;99.17;96432.34;105562;1254;65980;-35
2024/03/28 06:14:42;;;;;;;;;;;;;;;6.50;98.76;96432.08;105540;1254;72337;-38
2024/03/28 06:17:10;;;;;;;;;;;;;;;6.54;98.58;96434.95;105684;1254;62044;-41
2024/03/28 06:19:37;;;;;;;;;;;;;;;6.61;98.70;96433.50;105654;1254;62150;-39
2024/03/28 06:22:04;;;;;;;;;;;;;;;6.73;98.78;96433.02;105578;1255;74982;-35
2024/03/28 06:24:31;;;;;;;;;;;;;;;6.84;98.11;96427.00;105539;1254;65275;-37
2024/03/28 06:26:58;;;;;;;;;;;;;;;6.95;97.96;96424.34;105553;1253;72853;-38
2024/03/28 06:29:26;;;;;;;;;;;;;;;7.07;97.52;96413.66;105674;1256;62063;-37
2024/03/28 06:31:53;;;;;;;;;;;;;;;7.19;97.08;96410.14;105678;1254;62124;-35
2024/03/28 06:34:20;;;;;;;;;;;;;;;7.28;96.32;96400.48;105770;1256;74452;-38
2024/03/28 06:36:47;;;;;;;;;;;;;;;7.33;95.80;96396.14;105689;1256;67012;-34
2024/03/28 06:39:15;;;;;;;;;;;;;;;7.38;95.45;96389.39;105645;1254;73669;-36
2024/03/28 06:41:43;;;;;;;;;;;;;;;7.43;95.12;96389.20;105580;1256;62066;-36
2024/03/28 06:44:11;;;;;;;;;;;;;;;7.48;94.74;96402.70;105806;1253;62088;-38
2024/03/28 06:46:38;;;;;;;;;;;;;;;7.51;94.56;96412.36;105660;1253;75376;-37
2024/03/28 06:49:05;;;;;;;;;;;;;;;7.54;94.53;96419.70;109398;1254;65881;-38
2024/03/28 06:51:32;;;;;;;;;;;;;;;7.57;94.44;96423.69;109383;1253;72796;-38
2024/03/28 06:53:59;;;;;;;;;;;;;;;7.62;94.46;96424.05;106967;1253;61923;-37
2024/03/28 06:56:26;;;;;;;;;;;;;;;7.67;94.48;96418.37;106329;1253;62139;-38
2024/03/28 06:58:54;;;;;;;;;;;;;;;7.75;94.49;96423.06;108468;1253;75184;-38
2024/03/28 07:01:21;;;;;;;;;;;;;;;7.85;94.60;96434.23;105529;1253;66874;-39
2024/03/28 07:03:50;;;;;;;;;;;;;;;7.98;93.97;96432.79;105434;1254;73567;-37
2024/03/28 07:06:17;;;;;;;;;;;;;;;8.09;93.07;96437.41;105430;1257;62145;-38
2024/03/28 07:08:45;;;;;;;;;;;;;;;8.18;92.49;96442.92;105601;1256;62150;-36
2024/03/28 07:11:12;;;;;;;;;;;;;;;8.25;92.36;96437.02;105652;1253;75143;-38
2024/03/28 07:13:40;;;;;;;;;;;;;;;8.34;92.08;96435.57;105566;1253;66993;-36
2024/03/28 07:16:10;;;;;;;;;;;;;;;8.43;92.12;96428.06;105644;1254;71840;-37
2024/03/28 07:18:39;;;;;;;;;;;;;;;8.56;91.71;96425.52;105550;1258;62166;-36
2024/03/28 07:21:06;;;;;;;;;;;;;;;8.67;91.41;96428.76;105335;1254;62142;-34
2024/03/28 07:23:33;;;;;;;;;;;;;;;8.79;90.62;96423.99;105360;1254;75540;-36
2024/03/28 07:29:04;;;;;;;;;;;;;;;8.91;88.57;96411.14;109292;1253;71126;-37
2024/03/28 07:31:31;;;;;;;;;;;;;;;8.89;88.59;96392.58;108064;1253;62041;-38
2024/03/28 07:33:59;;;;;;;;;;;;;;;8.87;88.39;96387.59;105386;1253;62245;-39
2024/03/28 07:36:26;;;;;;;;;;;;;;;8.84;88.86;96390.36;105512;1257;76306;-38
2024/03/28 07:38:53;;;;;;;;;;;;;;;8.83;89.13;96381.86;105550;1254;67042;-37
2024/03/28 07:41:21;;;;;;;;;;;;;;;8.84;89.15;96378.86;105544;1256;73678;-37
2024/03/28 07:43:48;;;;;;;;;;;;;;;8.85;89.21;96380.89;109301;1253;63909;-38
2024/03/28 07:46:15;;;;;;;;;;;;;;;8.87;89.16;96386.77;109408;1253;59939;-38
2024/03/28 07:48:43;;;;;;;;;;;;;;;8.89;89.16;96377.84;107347;1253;76528;-36
2024/03/28 07:51:10;;;;;;;;;;;;;;;8.90;88.95;96375.77;105527;1259;65692;-38
2024/03/28 07:53:37;;;;;;;;;;;;;;;8.92;88.97;96374.45;105516;1254;73485;-36
2024/03/28 07:56:05;;;;;;;;;;;;;;;8.92;88.85;96377.90;105545;1256;62040;-37
2024/03/28 07:58:32;;;;;;;;;;;;;;;8.94;89.01;96384.55;105467;1257;61989;-39
2024/03/28 08:01:09;;;;;;;;;;;;;;;9.01;88.88;96373.91;105600;1257;76309;-43
2024/03/28 08:03:37;;;;;;;;;;;;;;;9.02;88.40;96374.34;105532;1256;66840;-36
2024/03/28 08:06:07;;;;;;;;;;;;;;;9.01;88.41;96367.35;105585;1257;73051;-37
2024/03/28 08:08:35;;;;;;;;;;;;;;;9.03;88.39;96367.19;105597;1254;62211;-37
2024/03/28 08:11:02;;;;;;;;;;;;;;;9.06;88.53;96371.67;105595;1254;62163;-38
2024/03/28 08:13:30;;;;;;;;;;;;;;;9.10;88.67;96368.92;105740;1254;74988;-35
2024/03/28 08:15:58;;;;;;;;;;;;;;;9.11;88.62;96370.46;105694;1256;64802;-36
2024/03/28 08:18:25;;;;;;;;;;;;;;;9.12;88.43;96379.32;105776;1254;73467;-37
2024/03/28 08:20:52;;;;;;;;;;;;;;;9.11;88.33;96392.71;105652;1254;62013;-38
2024/03/28 08:23:20;;;;;;;;;;;;;;;9.05;88.74;96395.40;105684;1251;61986;-36
2024/03/28 08:25:47;;;;;;;;;;;;;;;9.03;89.20;96397.95;105739;1253;76477;-37
2024/03/28 08:28:15;;;;;;;;;;;;;;;9.01;89.38;96403.20;106168;1257;67314;-36
2024/03/28 08:30:42;;;;;;;;;;;;;;;9.02;89.92;96404.64;109399;1253;73233;-40
2024/03/28 08:33:09;;;;;;;;;;;;;;;9.11;90.16;96394.86;109223;1252;60089;-40
2024/03/28 08:35:43;;;;;;;;;;;;;;;9.24;89.64;96398.17;105687;1253;62159;-39
2024/03/28 08:38:10;;;;;;;;;;;;;;;9.36;89.38;96395.30;105513;1252;75945;-40
2024/03/28 08:40:38;;;;;;;;;;;;;;;9.44;88.47;96381.88;105580;1258;66959;-39
2024/03/28 08:43:05;;;;;;;;;;;;;;;9.50;88.54;96371.35;105509;1256;72966;-38
2024/03/28 08:45:32;;;;;;;;;;;;;;;9.55;87.82;96369.65;106194;1256;62065;-39
2024/03/28 08:48:00;;;;;;;;;;;;;;;9.59;88.14;96365.52;105761;1254;62117;-40
2024/03/28 08:50:28;;;;;;;;;;;;;;;9.68;87.79;96363.27;105477;1253;76328;-42
2024/03/28 08:52:55;;;;;;;;;;;;;;;9.77;87.34;96365.20;109401;1253;64776;-39
2024/03/28 08:55:23;;;;;;;;;;;;;;;9.83;87.14;96363.46;109442;1252;73467;-39
2024/03/28 08:58:36;;;;;;;;;;;;;;;9.97;87.28;96363.33;105499;1252;62068;-39
2024/03/28 09:01:04;;;;;;;;;;;;;;;10.14;86.98;96362.08;105424;1254;62066;-39
2024/03/28 09:03:33;;;;;;;;;;;;;;;10.32;85.98;96355.30;105864;1254;76250;-45
2024/03/28 09:06:00;;;;;;;;;;;;;;;10.43;85.05;96349.39;105565;1257;67050;-37
2024/03/28 09:08:28;;;;;;;;;;;;;;;10.52;84.73;96351.83;105645;1256;73530;-36
2024/03/28 09:10:58;;;;;;;;;;;;;;;10.59;83.63;96351.27;105557;1258;63093;-37
2024/03/28 09:13:27;;;;;;;;;;;;;;;10.64;83.51;96347.52;105231;1260;62418;-38
2024/03/28 09:15:54;;;;;;;;;;;;;;;10.69;83.78;96344.02;105650;1254;76132;-37
2024/03/28 09:18:22;;;;;;;;;;;;;;;10.79;84.10;96344.30;105413;1254;67356;-38
2024/03/28 09:20:49;;;;;;;;;;;;;;;10.96;84.02;96342.98;109335;1256;73184;-40
2024/03/28 09:23:18;;;;;;;;;;;;;;;11.14;82.95;96343.95;109394;1253;60325;-39
2024/03/28 09:25:45;;;;;;;;;;;;;;;11.24;82.18;96352.77;109387;1252;59967;-40
2024/03/28 09:28:13;;;;;;;;;;;;;;;11.30;81.75;96351.46;109393;1254;75667;-40
2024/03/28 09:30:41;;;;;;;;;;;;;;;11.35;80.87;96348.39;109402;1253;67069;-39
2024/03/28 09:33:08;;;;;;;;;;;;;;;11.39;80.83;96360.86;107851;1253;72221;-40
2024/03/28 09:35:35;;;;;;;;;;;;;;;11.46;80.52;96353.42;105591;1254;62024;-40
2024/03/28 09:38:03;;;;;;;;;;;;;;;11.54;80.17;96350.92;105617;1253;62139;-40
2024/03/28 09:40:30;;;;;;;;;;;;;;;11.62;79.74;96346.27;105736;1254;75761;-39
2024/03/28 09:42:57;;;;;;;;;;;;;;;11.72;79.58;96336.27;105446;1259;66140;-39
2024/03/28 09:45:27;;;;;;;;;;;;;;;11.83;78.79;96338.61;105690;1257;73495;-37
2024/03/28 09:47:55;;;;;;;;;;;;;;;11.91;78.55;96340.98;105632;1257;62050;-36
2024/03/28 09:50:25;;;;;;;;;;;;;;;12.05;79.42;96344.79;105717;1254;62149;-39
2024/03/28 09:52:52;;;;;;;;;;;;;;;12.27;78.95;96353.17;105365;1259;76286;-38
2024/03/28 09:55:21;;;;;;;;;;;;;;;12.51;77.65;96356.67;105760;1254;66929;-39
2024/03/28 09:57:48;;;;;;;;;;;;;;;12.68;76.65;96366.52;105588;1254;73415;-39
2024/03/28 10:00:16;;;;;;;;;;;;;;;12.79;75.25;96368.73;105628;1254;62004;-39
2024/03/28 10:03:02;;;;;;;;;;;;;;;12.79;74.71;96371.35;105496;1254;61961;-37
2024/03/28 10:05:29;;;;;;;;;;;;;;;12.79;75.46;96362.98;105389;1260;75608;-36
2024/03/28 10:07:57;;;;;;;;;;;;;;;12.87;75.36;96359.28;105531;1256;66812;-35
2024/03/28 10:10:24;;;;;;;;;;;;;;;12.95;75.01;96352.73;106779;1256;73159;-35
2024/03/28 10:12:55;;;;;;;;;;;;;;;13.01;74.86;96350.52;105444;1257;62054;-36
2024/03/28 10:15:22;;;;;;;;;;;;;;;13.05;73.51;96338.66;106299;1254;62126;-36
2024/03/28 10:18:02;;;;;;;;;;;;;;;13.09;73.86;96334.56;105359;1257;76014;-37
2024/03/28 10:20:30;;;;;;;;;;;;;;;13.20;74.17;96341.05;109366;1253;67057;-37
2024/03/28 10:22:57;;;;;;;;;;;;;;;13.35;73.77;96339.27;106380;1257;72561;-38
2024/03/28 10:25:25;;;;;;;;;;;;;;;13.44;73.22;96331.14;105792;1257;62047;-37
2024/03/28 10:28:00;;;;;;;;;;;;;;;13.48;72.38;96333.39;105781;1254;62105;-36
2024/03/28 10:30:27;;;;;;;;;;;;;;;13.49;71.71;96338.17;105564;1259;75430;-35
2024/03/28 10:32:58;;;;;;;;;;;;;;;13.46;71.56;96339.86;105501;1256;65823;-35
2024/03/28 10:35:25;;;;;;;;;;;;;;;13.43;71.96;96337.08;105664;1254;73436;-36
2024/03/28 10:38:03;;;;;;;;;;;;;;;13.44;72.14;96336.49;105473;1257;62114;-36
2024/03/28 10:40:40;;;;;;;;;;;;;;;13.47;72.01;96341.20;105547;1254;62422;-36
2024/03/28 10:43:09;;;;;;;;;;;;;;;13.53;72.10;96339.94;105376;1252;77334;-37
2024/03/28 10:45:41;;;;;;;;;;;;;;;13.62;72.05;96340.09;105449;1259;67031;-40
2024/03/28 10:48:10;;;;;;;;;;;;;;;13.74;71.53;96335.67;105322;1254;73479;-38
2024/03/28 10:50:50;;;;;;;;;;;;;;;13.84;71.17;96331.22;105540;1253;62031;-38
2024/03/28 10:53:38;;;;;;;;;;;;;;;13.96;70.66;96342.40;105584;1254;62075;-39
2024/03/28 10:56:12;;;;;;;;;;;;;;;14.00;70.25;96348.19;105564;1257;76069;-38
2024/03/28 10:58:39;;;;;;;;;;;;;;;14.05;70.11;96340.91;105650;1257;67209;-36
2024/03/28 11:01:09;;;;;;;;;;;;;;;14.09;69.99;96330.91;105610;1254;72358;-35
2024/03/28 11:03:41;;;;;;;;;;;;;;;14.18;70.16;96326.33;105526;1254;62041;-35
2024/03/28 11:06:09;;;;;;;;;;;;;;;14.31;70.18;96326.27;105419;1253;62131;-35
2024/03/28 11:08:37;;;;;;;;;;;;;;;14.45;69.65;96334.63;105575;1252;76301;-35
2024/03/28 11:11:05;;;;;;;;;;;;;;;14.53;69.18;96338.18;105754;1254;66940;-34
2024/03/28 11:13:33;;;;;;;;;;;;;;;14.54;68.41;96339.20;105652;1254;73479;-33
2024/03/28 11:16:00;;;;;;;;;;;;;;;14.47;68.40;96343.84;105656;1256;62038;-34
2024/03/28 11:18:28;;;;;;;;;;;;;;;14.38;69.04;96339.95;105631;1253;217906;-34
2024/03/28 11:20:56;;;;;;;;;;;;;;;14.30;69.48;96339.08;105831;1253;76191;-35
2024/03/28 11:23:23;;;;;;;;;;;;;;;14.25;69.72;96337.11;105513;1259;66755;-35
2024/03/28 11:25:50;;;;;;;;;;;;;;;14.22;69.93;96339.90;105958;1254;73359;-38
2024/03/28 11:28:17;;;;;;;;;;;;;;;14.20;70.01;96356.92;105684;1256;62043;-41
2024/03/28 11:30:54;;;;;;;;;;;;;;;14.15;70.48;96352.58;105527;1254;62020;-41
2024/03/28 11:33:27;;;;;;;;;;;;;;;14.12;70.30;96356.83;105934;1253;76022;-40
2024/03/28 11:36:02;;;;;;;;;;;;;;;14.02;70.18;96354.92;105581;1259;67179;-41
2024/03/28 11:38:29;;;;;;;;;;;;;;;13.88;70.60;96344.08;105896;1254;73586;-40
2024/03/28 11:40:57;;;;;;;;;;;;;;;13.78;71.02;96343.83;105651;1256;62038;-39
2024/03/28 11:43:24;;;;;;;;;;;;;;;13.68;71.38;96346.46;105549;1259;62191;-37
2024/03/28 11:45:54;;;;;;;;;;;;;;;13.59;72.27;96352.48;105418;1255;76322;-42
2024/03/28 11:48:22;;;;;;;;;;;;;;;13.59;72.94;96355.23;105415;1254;67043;-39
2024/03/28 11:50:50;;;;;;;;;;;;;;;13.60;72.90;96345.96;105679;1254;72323;-40
2024/03/28 11:53:17;;;;;;;;;;;;;;;13.60;73.20;96336.60;105818;1252;62364;-41
2024/03/28 11:55:44;;;;;;;;;;;;;;;13.63;73.12;96331.28;105779;1254;62073;-41
2024/03/28 11:58:15;;;;;;;;;;;;;;;13.67;72.98;96342.29;105691;1254;76242;-39
2024/03/28 12:00:43;;;;;;;;;;;;;;;13.71;72.69;96345.38;105477;1257;66105;-39
2024/03/28 12:03:11;;;;;;;;;;;;;;;13.69;72.40;96338.04;105447;1255;72162;-41
2024/03/28 12:05:38;;;;;;;;;;;;;;;13.63;72.24;96342.48;105409;1256;62038;-41
2024/03/28 12:08:06;;;;;;;;;;;;;;;13.52;72.38;96344.38;105650;1253;62170;-39
2024/03/28 12:10:33;;;;;;;;;;;;;;;13.45;72.85;96343.99;105775;1256;76653;-38
2024/03/28 12:13:00;;;;;;;;;;;;;;;13.38;73.03;96340.59;105768;1254;66297;-39
2024/03/28 12:15:27;;;;;;;;;;;;;;;13.32;73.06;96341.27;105662;1254;73513;-40
2024/03/28 12:17:58;;;;;;;;;;;;;;;13.26;73.42;96348.52;105539;1256;61980;-39
2024/03/28 12:20:25;;;;;;;;;;;;;;;13.26;73.82;96350.90;105661;1254;62158;-40
2024/03/28 12:22:53;;;;;;;;;;;;;;;13.26;74.10;96352.88;105668;1257;76258;-39
2024/03/28 12:25:21;;;;;;;;;;;;;;;13.19;74.15;96358.40;105763;1259;65918;-40
2024/03/28 12:27:58;;;;;;;;;;;;;;;13.07;74.69;96365.45;105473;1254;73137;-40
2024/03/28 12:30:25;;;;;;;;;;;;;;;12.95;75.54;96382.39;105869;1256;61957;-39
2024/03/28 12:32:59;;;;;;;;;;;;;;;12.82;76.10;96395.16;105690;1254;62146;-39
2024/03/28 12:35:32;;;;;;;;;;;;;;;12.69;76.86;96406.70;105582;1257;76341;-40
2024/03/28 12:38:01;;;;;;;;;;;;;;;12.56;77.70;96415.98;105502;1259;67214;-40
2024/03/28 12:40:28;;;;;;;;;;;;;;;12.47;78.53;96426.45;105698;1254;73649;-39
2024/03/28 12:42:55;;;;;;;;;;;;;;;12.40;79.36;96427.42;109373;1254;60158;-40
2024/03/28 12:45:24;;;;;;;;;;;;;;;12.36;80.75;96437.41;109440;1253;60846;-41
2024/03/28 12:47:52;;;;;;;;;;;;;;;12.26;83.70;96447.48;109473;1254;76136;-41
2024/03/28 12:50:21;;;;;;;;;;;;;;;12.08;85.93;96445.08;106207;1254;67073;-40
2024/03/28 12:52:49;;;;;;;;;;;;;;;11.87;88.17;96437.37;105531;1255;72458;-41
2024/03/28 12:55:16;;;;;;;;;;;;;;;11.72;90.54;96435.52;105963;1253;62043;-38
2024/03/28 12:57:46;;;;;;;;;;;;;;;11.60;92.41;96425.52;105467;1254;62069;-39